Capitol Logistics 3258


KMIA
Miami International Airport
Miami, Florida, US
KRSW
Southwest Florida International Airport
Fort Myers, Florida, US

Activity Log

Date Flight Route Aircraft Duration
06/16/2019 CPX658 WINCO2 WINCO RSW SF34 0h 52m

Route Details

Aircraft Information
Primary: Saab 340AF
Backup: Not Available
Route Data
Distance: 91nm
Sched. Duration: 1h 05m
Avg. Duration: 0h 52m (-53m)
Times Flown: 1
Recm'd Route: WINCO2 WINCO RSW
Planned Altitude: 14,000ft
Origin Wx: KMIA 311253Z 21006KT 10SM FEW025 FEW045 BKN250 26/21 A2997 RMK AO2 SLP149 T02560211
Dest. Wx: KRSW 311253Z 18005KT 10SM CLR 24/23 A2995 RMK AO2 SLP139 T02440228
Notes:

Financial History
Total Freight: 5,695lbs
Average Load: 5,695lbs/flt
Fuel Used: 745lbs
Avg. Fuel Used: 745lbs/flt
Fuel Expense: $916
Avg. Fuel Expense: $916
Avg. Fuel Cost: $1.23/lbs
Total Gross Income: $6,378
Pilot Pay: $149
Total Expenses: $741
Total Revenue: $4,514
Average Revenue: $6,378.40